createdAt,value
2019-05-17T00:04:49.698Z,16.97
2019-05-17T00:07:18.382Z,17.23
2019-05-17T00:09:47.973Z,16.27
2019-05-17T00:12:17.876Z,16.57
2019-05-17T00:17:19.257Z,17.00
2019-05-17T00:22:29.263Z,18.00
2019-05-17T00:24:58.305Z,17.03
2019-05-17T00:27:27.708Z,19.13
2019-05-17T00:29:57.240Z,18.37
2019-05-17T00:32:27.446Z,17.73
2019-05-17T00:37:37.378Z,16.60
2019-05-17T00:40:07.722Z,18.63
2019-05-17T00:42:37.414Z,17.17
2019-05-17T00:45:06.917Z,20.30
2019-05-17T00:47:37.422Z,19.17
2019-05-17T00:50:07.542Z,19.53
2019-05-17T00:52:36.996Z,17.97
2019-05-17T00:55:06.879Z,16.63
2019-05-17T01:00:17.047Z,19.07
2019-05-17T01:05:32.302Z,19.20
2019-05-17T01:08:03.138Z,21.17
2019-05-17T01:10:32.868Z,20.20
2019-05-17T01:15:41.260Z,23.10
2019-05-17T01:18:09.996Z,21.97
2019-05-17T01:20:38.640Z,22.23
2019-05-17T01:23:07.904Z,23.70
2019-05-17T01:25:37.296Z,21.17
2019-05-17T01:30:47.414Z,21.73
2019-05-17T01:33:17.077Z,21.87
2019-05-17T01:35:46.680Z,21.13
2019-05-17T01:38:17.735Z,22.60
2019-05-17T01:40:46.524Z,20.80
2019-05-17T01:43:16.690Z,20.97
2019-05-17T01:45:48.070Z,21.33
2019-05-17T01:48:17.093Z,20.13
2019-05-17T01:50:46.487Z,20.50
2019-05-17T01:53:16.594Z,18.50
2019-05-17T01:55:46.593Z,19.93
2019-05-17T01:58:16.382Z,20.63
2019-05-17T02:00:46.516Z,20.73
2019-05-17T02:03:17.341Z,20.33
2019-05-17T02:08:26.428Z,18.90
2019-05-17T02:10:57.368Z,19.60
2019-05-17T02:13:26.806Z,19.27
2019-05-17T02:15:56.420Z,18.90
2019-05-17T02:18:26.663Z,19.00
2019-05-17T02:20:57.095Z,20.63
2019-05-17T02:23:27.025Z,19.97
2019-05-17T02:25:57.202Z,20.10
2019-05-17T02:28:26.120Z,20.83
2019-05-17T02:30:55.605Z,18.43
2019-05-17T02:33:25.031Z,20.97
2019-05-17T02:38:33.231Z,19.70
2019-05-17T02:41:03.203Z,19.27
2019-05-17T02:46:13.598Z,18.47
2019-05-17T02:48:43.056Z,19.43
2019-05-17T02:51:13.169Z,18.50
2019-05-17T02:53:42.898Z,18.17
2019-05-17T02:56:13.395Z,17.53
2019-05-17T02:58:43.929Z,19.87
2019-05-17T03:03:52.918Z,18.10
2019-05-17T03:06:22.808Z,19.30
2019-05-17T03:08:52.499Z,21.43
2019-05-17T03:14:03.932Z,17.13
2019-05-17T03:16:33.913Z,17.63
2019-05-17T03:19:04.193Z,18.77
2019-05-17T03:21:33.763Z,20.50
2019-05-17T03:24:03.405Z,20.33
2019-05-17T03:26:32.951Z,17.93
2019-05-17T03:29:22.785Z,17.80
2019-05-17T03:31:59.464Z,14.27
2019-05-17T03:37:06.165Z,17.00
2019-05-17T03:39:33.904Z,13.20
2019-05-17T03:42:02.827Z,12.67
2019-05-17T03:44:33.252Z,12.83
2019-05-17T03:49:43.683Z,12.27
2019-05-17T03:52:13.525Z,12.83
2019-05-17T03:54:42.989Z,12.67
2019-05-17T03:59:52.519Z,15.03
2019-05-17T04:02:23.038Z,13.90
2019-05-17T04:04:53.081Z,13.77
2019-05-17T04:07:23.560Z,13.10
2019-05-17T04:12:33.137Z,11.97
2019-05-17T04:15:03.218Z,11.67
2019-05-17T04:17:32.928Z,11.60
2019-05-17T04:20:03.918Z,12.43
2019-05-17T04:22:33.515Z,11.80
2019-05-17T04:25:03.078Z,11.93
2019-05-17T04:27:32.783Z,12.73
2019-05-17T04:32:39.223Z,12.67
2019-05-17T04:35:07.967Z,13.40
2019-05-17T04:37:38.634Z,14.27
2019-05-17T04:40:08.435Z,15.73
2019-05-17T04:42:37.252Z,13.30
2019-05-17T04:45:06.902Z,16.53
2019-05-17T04:47:36.321Z,15.13
2019-05-17T04:50:05.198Z,14.60
2019-05-17T04:52:33.942Z,14.53
2019-05-17T04:55:04.331Z,14.17
2019-05-17T05:00:14.052Z,13.57
2019-05-17T05:02:43.975Z,15.60
2019-05-17T05:05:14.609Z,14.13
2019-05-17T05:07:43.990Z,14.53
2019-05-17T05:10:13.926Z,13.27
2019-05-17T05:12:44.215Z,15.17
2019-05-17T05:15:13.917Z,15.30
2019-05-17T05:17:43.060Z,13.80
2019-05-17T05:20:13.694Z,14.77
2019-05-17T05:22:43.305Z,19.03
2019-05-17T05:25:12.834Z,15.67
2019-05-17T05:30:19.308Z,16.90
2019-05-17T05:35:32.789Z,18.50
2019-05-17T05:38:02.601Z,18.30
2019-05-17T05:40:32.080Z,16.37
2019-05-17T05:45:41.712Z,18.63
2019-05-17T05:48:12.943Z,15.63
2019-05-17T05:53:18.747Z,17.00
2019-05-17T05:55:47.607Z,15.47
2019-05-17T05:58:16.645Z,15.77
2019-05-17T06:03:22.857Z,15.57
2019-05-17T06:05:52.509Z,17.47
2019-05-17T06:08:22.674Z,16.93
2019-05-17T06:10:53.140Z,16.20
2019-05-17T06:13:22.786Z,18.10
2019-05-17T06:18:31.865Z,16.87
2019-05-17T06:21:02.992Z,17.03
2019-05-17T06:23:33.106Z,18.70
2019-05-17T06:26:03.864Z,18.30
2019-05-17T06:28:33.419Z,17.60
2019-05-17T06:31:02.834Z,18.13
2019-05-17T06:33:34.705Z,17.37
2019-05-17T06:36:02.933Z,18.63
2019-05-17T06:38:32.833Z,18.03
2019-05-17T06:41:01.824Z,18.37
2019-05-17T06:43:32.232Z,17.30
2019-05-17T06:46:01.957Z,17.10
2019-05-17T06:51:08.508Z,20.33
2019-05-17T06:53:37.780Z,18.97
2019-05-17T06:56:06.803Z,17.67
2019-05-17T06:58:35.655Z,18.60
2019-05-17T07:01:04.446Z,17.33
2019-05-17T07:03:33.162Z,17.70
2019-05-17T07:06:03.782Z,17.83
2019-05-17T07:08:32.684Z,15.70
2019-05-17T07:11:01.779Z,16.17
2019-05-17T07:13:30.452Z,16.20
2019-05-17T07:15:59.690Z,15.00
2019-05-17T07:18:30.081Z,15.20
2019-05-17T07:23:39.638Z,15.57
2019-05-17T07:26:09.791Z,16.57
2019-05-17T07:28:40.405Z,18.33
2019-05-17T07:31:10.174Z,16.80
2019-05-17T07:33:39.961Z,16.03
2019-05-17T07:36:10.193Z,17.97
2019-05-17T07:38:39.632Z,16.73
2019-05-17T07:41:10.062Z,18.27
2019-05-17T07:43:40.549Z,17.23
2019-05-17T07:46:09.684Z,20.40
2019-05-17T07:51:16.007Z,21.23
2019-05-17T07:53:44.654Z,24.47
2019-05-17T07:56:13.316Z,22.47
2019-05-17T07:58:42.449Z,21.13
2019-05-17T08:01:11.547Z,21.67
2019-05-17T08:03:40.780Z,21.37
2019-05-17T08:08:50.114Z,20.30
2019-05-17T08:11:19.653Z,21.57
2019-05-17T08:13:50.495Z,22.20
2019-05-17T08:19:00.388Z,21.10
2019-05-17T08:21:30.594Z,22.70
2019-05-17T08:24:00.148Z,23.83
2019-05-17T08:29:14.974Z,22.87
2019-05-17T08:31:47.007Z,21.67
2019-05-17T08:37:01.808Z,23.43
2019-05-17T08:42:33.051Z,23.53
2019-05-17T08:47:51.048Z,20.90
2019-05-17T08:50:22.506Z,22.00
2019-05-17T08:52:59.816Z,21.83
2019-05-17T08:55:34.059Z,19.07
2019-05-17T09:00:50.738Z,16.67
2019-05-17T09:03:30.331Z,16.00
2019-05-17T09:06:02.422Z,17.80
2019-05-17T09:11:27.260Z,17.77
2019-05-17T09:14:02.121Z,18.43
2019-05-17T09:19:16.564Z,18.27
2019-05-17T09:21:53.565Z,20.27
2019-05-17T09:24:26.066Z,16.10
2019-05-17T09:26:59.889Z,16.10
2019-05-17T09:29:33.647Z,16.50
2019-05-17T09:34:49.868Z,17.53
2019-05-17T09:40:17.176Z,14.27
2019-05-17T09:42:52.097Z,14.80
2019-05-17T09:45:23.120Z,14.43
2019-05-17T09:50:36.040Z,14.63
2019-05-17T09:55:53.896Z,15.07
2019-05-17T09:58:36.108Z,13.93
2019-05-17T10:01:03.132Z,13.67
2019-05-17T10:03:39.722Z,13.00
2019-05-17T10:06:12.580Z,13.77
2019-05-17T10:08:51.210Z,14.47
2019-05-17T10:14:28.206Z,12.43
2019-05-17T10:16:53.915Z,12.07
2019-05-17T10:22:13.764Z,14.23
2019-05-17T10:27:41.907Z,13.63
2019-05-17T10:30:20.928Z,14.60
2019-05-17T10:35:34.930Z,13.57
2019-05-17T10:40:49.878Z,13.63
2019-05-17T10:46:11.254Z,13.40
2019-05-17T10:48:49.900Z,11.50
2019-05-17T10:54:21.152Z,11.40
2019-05-17T10:56:55.767Z,11.60
2019-05-17T11:02:19.493Z,10.27
2019-05-17T11:07:30.819Z,9.23
2019-05-17T11:10:24.398Z,9.67
2019-05-17T11:15:44.286Z,11.27
2019-05-17T11:18:24.180Z,10.23
2019-05-17T11:21:04.849Z,9.80
2019-05-17T11:26:28.437Z,8.73
2019-05-17T11:28:59.218Z,8.37
2019-05-17T11:34:14.539Z,9.67
2019-05-17T11:36:45.860Z,8.50
2019-05-17T11:39:19.616Z,6.20
2019-05-17T11:41:52.918Z,7.60
2019-05-17T11:44:30.166Z,8.73
2019-05-17T11:49:54.088Z,7.27
2019-05-17T11:55:07.695Z,7.43
2019-05-17T11:57:43.144Z,8.07
2019-05-17T12:02:59.110Z,6.33
2019-05-17T12:05:42.114Z,6.17
2019-05-17T12:08:20.887Z,6.17
2019-05-17T12:10:56.524Z,8.20
2019-05-17T12:13:28.395Z,6.73
2019-05-17T12:18:57.918Z,9.23
2019-05-17T12:21:38.313Z,7.67
2019-05-17T12:24:16.358Z,5.60
2019-05-17T12:27:01.098Z,5.60
2019-05-17T12:32:27.296Z,5.83
2019-05-17T12:35:01.142Z,6.13
2019-05-17T12:40:17.483Z,5.60
2019-05-17T12:42:56.736Z,5.20
2019-05-17T12:45:27.778Z,4.60
2019-05-17T12:50:40.204Z,5.13
2019-05-17T12:53:16.723Z,5.87
2019-05-17T12:55:54.643Z,5.10
2019-05-17T13:01:14.901Z,5.50
2019-05-17T13:06:31.718Z,6.03
2019-05-17T13:09:05.850Z,5.73
2019-05-17T13:14:21.745Z,6.37
2019-05-17T13:16:52.941Z,6.63
2019-05-17T13:19:26.765Z,5.63
2019-05-17T13:22:03.348Z,6.33
2019-05-17T13:24:36.913Z,6.10
2019-05-17T13:30:00.760Z,5.97
2019-05-17T13:32:37.516Z,5.97
2019-05-17T13:38:07.989Z,7.83
2019-05-17T13:40:44.634Z,7.30
2019-05-17T13:43:20.162Z,7.10
2019-05-17T13:45:58.884Z,7.20
2019-05-17T13:48:34.371Z,7.43
2019-05-17T13:51:06.687Z,7.63
2019-05-17T13:53:49.405Z,7.83
2019-05-17T13:58:51.857Z,8.20
2019-05-17T14:04:23.077Z,7.73
2019-05-17T14:09:48.182Z,8.53
2019-05-17T14:12:20.764Z,8.30
2019-05-17T14:14:51.564Z,8.10
2019-05-17T14:17:26.221Z,8.10
2019-05-17T14:20:05.644Z,9.70
2019-05-17T14:22:36.957Z,8.83
2019-05-17T14:27:59.661Z,8.40
2019-05-17T14:30:38.615Z,9.67
2019-05-17T14:33:14.007Z,9.27
2019-05-17T14:38:40.028Z,9.60
2019-05-17T14:41:25.166Z,9.20
2019-05-17T14:44:08.313Z,9.43
2019-05-17T14:49:35.258Z,8.87
2019-05-17T14:52:13.045Z,9.63
2019-05-17T14:54:58.422Z,9.83
2019-05-17T15:00:34.588Z,9.90
2019-05-17T15:03:13.018Z,9.03
2019-05-17T15:05:47.949Z,8.37
2019-05-17T15:11:21.281Z,9.43
2019-05-17T15:19:51.588Z,9.83
2019-05-17T15:22:35.061Z,9.50
2019-05-17T15:25:14.961Z,9.13
2019-05-17T15:30:50.116Z,9.57
2019-05-17T15:33:46.307Z,9.17
2019-05-17T15:36:31.892Z,9.30
2019-05-17T15:39:09.000Z,9.37
2019-05-17T15:42:10.823Z,8.53
2019-05-17T15:48:09.233Z,7.90
2019-05-17T15:50:44.064Z,8.23
2019-05-17T15:53:26.211Z,7.77
2019-05-17T15:56:02.831Z,7.70
2019-05-17T16:01:23.374Z,7.47
2019-05-17T16:04:17.213Z,7.63
2019-05-17T16:07:07.030Z,8.30
2019-05-17T16:13:02.551Z,7.90
2019-05-17T16:15:35.377Z,8.40
2019-05-17T16:18:19.352Z,7.87
2019-05-17T16:21:03.788Z,8.27
2019-05-17T16:26:35.208Z,8.40
2019-05-17T16:29:35.525Z,7.80
2019-05-17T16:32:21.751Z,7.90
2019-05-17T16:37:41.255Z,7.90
2019-05-17T16:40:26.519Z,7.97
2019-05-17T16:43:17.993Z,8.03
2019-05-17T16:46:03.379Z,7.70
2019-05-17T16:51:35.312Z,8.83
2019-05-17T16:57:07.292Z,13.00
2019-05-17T16:59:53.367Z,8.33
2019-05-17T17:05:30.744Z,8.40
2019-05-17T17:08:23.550Z,8.60
2019-05-17T17:11:05.188Z,8.40
2019-05-17T17:13:44.314Z,7.60
2019-05-17T17:19:11.504Z,7.20
2019-05-17T17:21:47.904Z,6.70
2019-05-17T17:27:40.578Z,6.50
2019-05-17T17:30:12.788Z,7.63
2019-05-17T17:35:39.815Z,8.93
2019-05-17T17:38:16.542Z,9.97
2019-05-17T17:44:00.136Z,8.40
2019-05-17T17:47:09.673Z,8.63
2019-05-17T17:50:06.120Z,7.97
2019-05-17T17:55:49.861Z,8.53
2019-05-17T18:01:46.270Z,8.47
2019-05-17T18:04:20.447Z,8.97
2019-05-17T18:10:11.322Z,7.07
2019-05-17T18:12:52.207Z,6.87
2019-05-17T18:15:41.004Z,6.77
2019-05-17T18:18:19.943Z,7.40
2019-05-17T18:23:49.750Z,7.27
2019-05-17T18:26:38.814Z,7.33
2019-05-17T18:34:56.499Z,7.40
2019-05-17T18:37:29.713Z,8.23
2019-05-17T18:40:09.325Z,7.90
2019-05-17T18:42:45.389Z,7.93
2019-05-17T18:48:03.529Z,7.60
2019-05-17T18:50:39.354Z,6.50
2019-05-17T18:53:16.935Z,7.23
2019-05-17T18:56:01.681Z,7.30
2019-05-17T18:58:53.535Z,6.63
2019-05-17T19:05:23.064Z,9.50
2019-05-17T19:08:14.996Z,9.50
2019-05-17T19:14:24.441Z,8.20
2019-05-17T19:20:23.857Z,6.27
2019-05-17T19:23:40.546Z,7.40
2019-05-17T19:29:27.955Z,7.57
2019-05-17T19:35:07.997Z,8.60
2019-05-17T19:38:18.736Z,9.80
2019-05-17T19:43:51.073Z,8.73
2019-05-17T19:46:47.397Z,9.20
2019-05-17T19:49:29.206Z,7.67
2019-05-17T19:55:09.669Z,8.83
2019-05-17T19:58:21.207Z,9.37
2019-05-17T20:01:13.938Z,14.33
2019-05-17T20:04:20.959Z,10.10
2019-05-17T20:10:19.773Z,10.17
2019-05-17T20:13:46.054Z,10.23
2019-05-17T20:17:04.921Z,9.73
2019-05-17T20:20:10.076Z,10.50
2019-05-17T20:26:13.913Z,9.97
2019-05-17T20:35:17.959Z,10.73
2019-05-17T20:38:44.542Z,10.20
2019-05-17T20:44:36.234Z,10.83
2019-05-17T20:47:43.984Z,10.30
2019-05-17T20:50:31.563Z,9.63
2019-05-17T20:56:33.456Z,9.97
2019-05-17T20:59:15.497Z,9.47
2019-05-17T21:01:57.239Z,9.50
2019-05-17T21:04:47.937Z,10.10
2019-05-17T21:10:22.191Z,11.30
2019-05-17T21:13:14.165Z,10.90
2019-05-17T21:16:00.749Z,11.10
2019-05-17T21:21:52.371Z,11.53
2019-05-17T21:27:55.214Z,10.87
2019-05-17T21:30:41.257Z,11.00
2019-05-17T21:33:31.784Z,9.77
2019-05-17T21:39:21.583Z,10.40
2019-05-17T21:42:23.215Z,11.50
2019-05-17T21:48:20.233Z,12.50
2019-05-17T21:53:59.586Z,12.33
2019-05-17T21:56:37.338Z,11.13
2019-05-17T21:59:41.330Z,12.20
2019-05-17T22:02:30.727Z,10.40
2019-05-17T22:05:19.992Z,12.13
2019-05-17T22:08:13.306Z,12.00
2019-05-17T22:11:17.988Z,12.17
2019-05-17T22:17:25.554Z,9.87
2019-05-17T22:23:08.293Z,10.40
2019-05-17T22:26:04.829Z,11.53
2019-05-17T22:31:39.070Z,11.23
2019-05-17T22:38:00.219Z,12.77
2019-05-17T22:40:51.862Z,11.90
2019-05-17T22:43:45.043Z,11.93
2019-05-17T22:52:31.485Z,11.50
2019-05-17T22:55:18.490Z,12.57
2019-05-17T23:01:33.994Z,13.43
2019-05-17T23:04:55.262Z,13.07
2019-05-17T23:11:15.816Z,13.97
2019-05-17T23:14:03.514Z,14.23
2019-05-17T23:20:26.392Z,14.40
2019-05-17T23:23:45.100Z,14.63
2019-05-17T23:26:57.698Z,12.53
2019-05-17T23:33:14.316Z,12.50
2019-05-17T23:36:16.293Z,13.17
2019-05-17T23:39:37.728Z,12.50
2019-05-17T23:42:14.141Z,13.83
2019-05-17T23:45:14.380Z,12.33
2019-05-17T23:48:11.036Z,14.20
2019-05-17T23:50:57.850Z,12.97
2019-05-17T23:57:10.464Z,12.27
